Time;durP1;ratioP1;P1;durP2;ratioP2;P2;SDS_P1;SDS_P2;PMS_P1;PMS_P2;Temp;Humidity;BMP_temperature;BMP_pressure;BME280_temperature;BME280_humidity;BME280_pressure;Samples;Min_cycle;Max_cycle;Signal;HPM_P1;HPM_P2
2023/07/30 00:00:28;;;;;;;4.65;1.85;;;17.40;99.90;;;;;;5077611;28;20031;-74
2023/07/30 00:02:54;;;;;;;4.43;1.67;;;17.30;99.90;;;;;;5089744;28;20024;-72
2023/07/30 00:05:20;;;;;;;2.88;1.15;;;17.30;99.90;;;;;;5099286;28;20032;-73
2023/07/30 00:07:46;;;;;;;3.90;1.40;;;17.30;99.90;;;;;;5105804;28;20368;-74
2023/07/30 00:10:11;;;;;;;2.58;1.17;;;17.30;99.90;;;;;;5119341;28;20073;-72
2023/07/30 00:12:37;;;;;;;3.20;1.27;;;17.20;99.90;;;;;;5119283;28;20340;-75
2023/07/30 00:15:03;;;;;;;3.17;1.23;;;17.20;99.90;;;;;;5120072;28;20027;-72
2023/07/30 00:17:29;;;;;;;2.58;1.10;;;17.10;99.90;;;;;;5118314;28;20040;-72
2023/07/30 00:19:54;;;;;;;2.63;1.20;;;17.20;99.90;;;;;;5073407;28;20099;-73
2023/07/30 00:22:23;;;;;;;2.92;1.20;;;17.20;99.90;;;;;;5087175;28;20179;-73
2023/07/30 00:24:52;;;;;;;2.92;0.90;;;17.20;99.90;;;;;;5085117;28;20096;-73
2023/07/30 00:27:18;;;;;;;2.72;0.90;;;17.00;99.90;;;;;;5085059;28;20035;-73
2023/07/30 00:29:43;;;;;;;2.45;1.13;;;17.00;99.90;;;;;;5085147;28;20210;-71
2023/07/30 08:29:16;;;;;;;2.33;1.00;;;19.60;99.90;;;;;;5294772;23;20062;-70
2023/07/30 08:31:42;;;;;;;1.90;0.82;;;19.60;99.90;;;;;;4982513;28;20034;-70
2023/07/30 08:34:07;;;;;;;1.90;1.00;;;19.00;99.90;;;;;;4985771;28;20034;-70
2023/07/30 08:36:33;;;;;;;2.92;1.10;;;19.30;99.90;;;;;;4986121;28;20022;-70
2023/07/30 08:38:59;;;;;;;2.28;1.00;;;19.70;99.90;;;;;;4986282;28;20039;-70
2023/07/30 08:41:24;;;;;;;1.55;0.77;;;19.90;99.90;;;;;;4985338;28;20027;-70
2023/07/30 08:43:52;;;;;;;1.92;0.88;;;19.70;99.90;;;;;;4986070;28;20320;-70
2023/07/30 08:46:18;;;;;;;2.88;1.00;;;19.60;99.90;;;;;;4985562;28;20031;-71
2023/07/30 08:48:44;;;;;;;2.83;1.10;;;19.70;99.90;;;;;;4985991;28;20094;-70
2023/07/30 08:51:12;;;;;;;2.38;0.77;;;19.70;99.90;;;;;;4986302;28;20085;-70
2023/07/30 08:53:39;;;;;;;2.35;0.90;;;19.90;99.90;;;;;;4986224;28;20019;-71
2023/07/30 08:56:05;;;;;;;2.05;1.00;;;19.80;99.90;;;;;;4985867;28;20023;-69
2023/07/30 08:58:34;;;;;;;1.70;1.10;;;19.40;99.90;;;;;;4986015;28;20043;-70
2023/07/30 09:01:05;;;;;;;2.20;1.10;;;19.10;99.90;;;;;;4986202;28;20038;-70
2023/07/30 09:03:34;;;;;;;2.97;0.93;;;19.50;99.90;;;;;;4985788;28;20026;-71
2023/07/30 09:05:59;;;;;;;;;;;19.30;99.90;;;;;;4986312;28;20054;-71
2023/07/30 09:08:25;;;;;;;1.90;0.80;;;19.40;99.90;;;;;;4985481;28;19932;-70
2023/07/30 09:10:51;;;;;;;2.72;1.00;;;19.40;99.90;;;;;;4986047;28;20038;-71
2023/07/30 09:13:25;;;;;;;2.17;0.85;;;19.70;99.90;;;;;;4985540;28;20095;-70
2023/07/30 09:15:51;;;;;;;2.60;1.13;;;19.50;99.90;;;;;;4985784;28;20046;-69
2023/07/30 09:18:20;;;;;;;2.08;0.93;;;19.70;99.90;;;;;;4985504;28;20038;-70
2023/07/30 09:20:46;;;;;;;3.45;1.08;;;19.90;99.90;;;;;;4985979;28;20094;-69
2023/07/30 09:23:12;;;;;;;2.08;1.25;;;20.00;99.90;;;;;;4962011;29;20253;-77
2023/07/30 09:25:38;;;;;;;1.80;0.98;;;20.30;99.90;;;;;;4966190;29;20047;-73
2023/07/30 09:28:06;;;;;;;2.97;1.15;;;20.20;99.90;;;;;;4972526;28;20114;-70
2023/07/30 09:30:33;;;;;;;4.35;1.05;;;20.00;99.90;;;;;;4985672;28;20034;-70
2023/07/30 09:32:59;;;;;;;3.47;0.95;;;20.20;99.90;;;;;;4985962;28;20053;-70
2023/07/30 09:35:25;;;;;;;2.08;1.10;;;20.20;99.90;;;;;;4984891;28;20031;-71
2023/07/30 09:38:03;;;;;;;1.88;0.90;;;20.10;99.90;;;;;;4965892;29;20236;-71
2023/07/30 09:40:38;;;;;;;2.25;1.02;;;20.00;99.90;;;;;;4965571;29;20202;-72
2023/07/30 09:43:05;;;;;;;3.25;1.27;;;19.90;99.90;;;;;;4965712;29;20039;-71
2023/07/30 09:45:35;;;;;;;2.25;1.17;;;20.10;99.90;;;;;;4965446;29;20067;-71
2023/07/30 09:48:04;;;;;;;2.22;1.00;;;20.40;99.90;;;;;;4966079;29;20067;-71
2023/07/30 09:50:30;;;;;;;2.33;1.00;;;20.70;99.90;;;;;;4965394;29;20031;-72
2023/07/30 09:52:58;;;;;;;2.58;1.13;;;20.80;99.90;;;;;;4965003;28;20038;-71
2023/07/30 09:55:24;;;;;;;2.03;1.27;;;20.70;99.90;;;;;;4965535;29;20039;-69
2023/07/30 09:57:49;;;;;;;2.35;1.00;;;20.70;99.90;;;;;;4965503;29;20042;-72
2023/07/30 10:00:15;;;;;;;2.97;1.10;;;20.90;99.90;;;;;;4965505;29;20038;-70
2023/07/30 10:02:46;;;;;;;2.15;1.10;;;21.20;99.90;;;;;;4965704;29;20027;-70
2023/07/30 10:05:15;;;;;;;2.58;1.38;;;21.50;99.90;;;;;;4965095;29;20282;-71
2023/07/30 10:07:51;;;;;;;2.28;1.10;;;21.60;99.90;;;;;;4965644;29;20045;-69
2023/07/30 10:10:19;;;;;;;2.90;1.00;;;21.90;99.90;;;;;;4965414;29;20094;-70
2023/07/30 10:12:45;;;;;;;3.22;1.10;;;22.10;99.90;;;;;;4965195;29;20027;-71
2023/07/30 10:15:11;;;;;;;1.90;1.02;;;22.40;99.90;;;;;;4947537;29;20034;-71
2023/07/30 10:17:37;;;;;;;2.22;1.10;;;22.20;99.90;;;;;;4965420;29;20061;-70
2023/07/30 10:20:23;;;;;;;2.63;1.70;;;22.50;99.90;;;;;;4965427;29;20034;-70
2023/07/30 10:22:54;;;;;;;2.40;1.30;;;22.60;99.90;;;;;;4967694;28;20224;-69
2023/07/30 10:25:46;;;;;;;2.95;1.10;;;22.70;99.90;;;;;;4983977;28;20034;-71
2023/07/30 10:28:32;;;;;;;2.53;0.98;;;22.40;99.90;;;;;;4983758;28;20055;-71
2023/07/30 10:31:00;;;;;;;2.47;1.02;;;22.30;99.90;;;;;;4984741;28;20014;-70
2023/07/30 10:33:46;;;;;;;3.25;1.30;;;22.50;99.90;;;;;;4966962;28;20027;-71
2023/07/30 10:36:12;;;;;;;2.20;1.20;;;22.70;99.40;;;;;;4970792;28;20318;-71
2023/07/30 10:38:39;;;;;;;2.97;1.00;;;23.00;98.90;;;;;;4967110;28;20035;-71
2023/07/30 10:41:13;;;;;;;3.47;1.05;;;23.20;98.50;;;;;;4984201;28;20129;-71
2023/07/30 10:43:59;;;;;;;3.30;1.45;;;23.20;98.00;;;;;;4967315;28;20110;-70
2023/07/30 10:46:26;;;;;;;2.00;1.00;;;23.40;97.20;;;;;;4983526;28;20169;-71
2023/07/30 10:48:52;;;;;;;1.83;1.05;;;23.50;96.70;;;;;;4983966;28;20296;-71
2023/07/30 10:51:18;;;;;;;2.70;1.30;;;23.20;95.90;;;;;;4983420;28;20038;-72
2023/07/30 10:53:46;;;;;;;2.05;1.05;;;23.20;95.90;;;;;;4984020;28;20043;-72
2023/07/30 10:56:13;;;;;;;2.63;1.20;;;23.50;95.40;;;;;;4983700;28;20389;-71
2023/07/30 10:58:38;;;;;;;3.38;1.45;;;23.40;95.00;;;;;;4983981;28;20039;-72
2023/07/30 11:01:06;;;;;;;2.53;1.40;;;23.60;95.00;;;;;;4983832;28;20043;-71
2023/07/30 11:03:32;;;;;;;4.45;1.40;;;23.70;93.80;;;;;;4983479;28;20495;-71
2023/07/30 11:05:58;;;;;;;3.17;1.27;;;23.80;93.90;;;;;;4983907;28;20022;-71
2023/07/30 11:08:37;;;;;;;3.60;1.58;;;24.30;93.60;;;;;;4983459;28;20049;-72
2023/07/30 11:11:04;;;;;;;2.67;1.25;;;25.10;92.30;;;;;;4983588;28;20105;-76
2023/07/30 11:13:38;;;;;;;2.38;1.33;;;25.30;90.80;;;;;;4983153;28;20030;-71
2023/07/30 11:16:10;;;;;;;2.45;1.27;;;25.20;90.30;;;;;;4983727;28;20090;-70
2023/07/30 11:18:40;;;;;;;2.58;1.10;;;24.80;90.30;;;;;;4983078;28;20065;-70
2023/07/30 11:21:18;;;;;;;2.97;1.40;;;24.70;90.50;;;;;;4983994;28;20041;-70
2023/07/30 11:23:45;;;;;;;3.15;1.33;;;24.70;89.40;;;;;;4973608;28;20106;-71
2023/07/30 11:26:19;;;;;;;2.28;1.30;;;24.40;89.20;;;;;;4964172;29;20059;-70
2023/07/30 11:28:45;;;;;;;2.95;1.30;;;24.40;89.80;;;;;;4955783;29;20043;-71
2023/07/30 11:31:13;;;;;;;2.42;1.08;;;24.50;89.90;;;;;;4964445;28;20087;-70
2023/07/30 11:33:44;;;;;;;2.28;1.20;;;24.90;88.80;;;;;;4964122;29;20039;-68
2023/07/30 11:36:21;;;;;;;3.28;1.00;;;24.70;88.90;;;;;;4963996;28;20031;-71
2023/07/30 11:38:48;;;;;;;2.28;1.00;;;24.90;88.10;;;;;;4964105;29;20213;-70
2023/07/30 11:41:14;;;;;;;4.05;1.40;;;25.40;87.00;;;;;;4964279;29;20031;-71
2023/07/30 11:43:42;;;;;;;2.65;1.23;;;25.90;87.50;;;;;;4963308;29;20224;-71
2023/07/30 11:46:22;;;;;;;;;;;26.50;85.70;;;;;;4964703;29;20300;-70
2023/07/30 11:48:50;;;;;;;4.53;1.13;;;26.70;85.50;;;;;;4964043;29;20126;-70
2023/07/30 11:51:26;;;;;;;2.03;1.23;;;27.20;83.40;;;;;;4963818;29;20054;-71
2023/07/30 11:53:54;;;;;;;3.22;1.17;;;27.60;83.10;;;;;;4964157;29;20043;-71
2023/07/30 11:56:25;;;;;;;4.85;1.40;;;28.10;80.50;;;;;;4962677;29;20417;-71
2023/07/30 11:58:56;;;;;;;3.80;1.15;;;28.80;79.70;;;;;;4963255;29;20082;-72
2023/07/30 12:01:24;;;;;;;1.90;1.10;;;28.80;77.30;;;;;;4963269;29;20254;-71
2023/07/30 12:03:50;;;;;;;2.63;1.05;;;28.90;76.70;;;;;;4963830;29;20094;-73
2023/07/30 12:06:16;;;;;;;2.65;1.02;;;29.00;75.90;;;;;;4963235;29;20043;-74
2023/07/30 12:08:41;;;;;;;2.65;0.98;;;29.30;74.90;;;;;;4962335;28;20102;-73
2023/07/30 12:11:09;;;;;;;3.10;1.20;;;29.40;75.20;;;;;;4978586;28;20031;-72
2023/07/30 12:13:48;;;;;;;1.67;0.80;;;29.60;72.70;;;;;;4963582;29;20028;-73
2023/07/30 12:16:14;;;;;;;5.35;1.20;;;30.20;71.10;;;;;;4966692;28;20452;-71
2023/07/30 12:18:40;;;;;;;1.83;1.00;;;30.20;70.40;;;;;;4966271;29;20038;-70
2023/07/30 12:21:07;;;;;;;2.55;0.90;;;28.60;72.50;;;;;;4967625;29;20027;-74
2023/07/30 12:23:34;;;;;;;3.67;1.30;;;28.90;73.10;;;;;;4958078;29;20104;-69
2023/07/30 12:26:00;;;;;;;2.05;1.10;;;29.40;73.40;;;;;;4951401;29;20038;-73
2023/07/30 12:28:26;;;;;;;2.58;1.52;;;30.30;70.60;;;;;;4972225;28;20061;-72
2023/07/30 12:30:52;;;;;;;4.07;1.05;;;31.00;69.00;;;;;;4986382;28;20035;-71
2023/07/30 12:33:18;;;;;;;2.78;1.00;;;31.80;66.40;;;;;;4986263;28;20038;-72
2023/07/30 12:35:44;;;;;;;2.92;1.00;;;31.60;66.10;;;;;;4986452;28;20030;-73
2023/07/30 12:38:10;;;;;;;5.95;1.10;;;31.60;66.80;;;;;;4986441;28;20320;-73
2023/07/30 12:40:36;;;;;;;1.55;0.80;;;32.00;66.20;;;;;;4986061;28;20034;-72
2023/07/30 12:43:02;;;;;;;2.05;0.90;;;30.90;65.70;;;;;;4986432;28;20085;-74
2023/07/30 12:45:29;;;;;;;3.58;1.17;;;29.40;68.30;;;;;;4985857;28;20035;-75
2023/07/30 12:47:55;;;;;;;3.30;1.15;;;29.40;69.00;;;;;;4986000;28;20256;-72
2023/07/30 12:50:20;;;;;;;2.40;1.10;;;29.10;70.60;;;;;;4968584;28;20094;-72
2023/07/30 12:52:46;;;;;;;2.63;1.17;;;29.10;69.90;;;;;;4986419;28;20102;-73
2023/07/30 12:55:12;;;;;;;3.13;0.95;;;28.60;71.10;;;;;;4985909;28;20038;-73
2023/07/30 12:57:37;;;;;;;4.22;1.23;;;27.90;72.90;;;;;;4985645;28;20031;-72
2023/07/30 13:00:04;;;;;;;2.78;0.90;;;28.60;72.40;;;;;;4968848;28;20030;-72
2023/07/30 13:02:33;;;;;;;1.52;0.82;;;29.80;69.50;;;;;;4985765;28;20077;-73
2023/07/30 13:04:59;;;;;;;2.13;1.08;;;30.50;68.10;;;;;;4985930;28;20367;-73
2023/07/30 13:07:25;;;;;;;3.47;1.08;;;30.10;67.00;;;;;;4985404;28;20062;-72
2023/07/30 13:10:03;;;;;;;2.47;1.25;;;29.10;68.30;;;;;;4968702;28;20038;-70
2023/07/30 13:12:28;;;;;;;2.25;0.88;;;30.40;67.50;;;;;;4985613;28;20107;-73
2023/07/30 13:14:54;;;;;;;2.40;1.30;;;32.00;64.30;;;;;;4985735;28;20102;-73
2023/07/30 13:17:20;;;;;;;2.33;1.00;;;31.90;62.80;;;;;;4968020;28;20034;-74
2023/07/30 13:19:46;;;;;;;3.17;1.20;;;31.60;62.00;;;;;;4985422;28;20045;-73
2023/07/30 13:22:11;;;;;;;2.78;0.90;;;30.60;62.70;;;;;;4986124;28;20178;-72
2023/07/30 13:24:37;;;;;;;1.85;1.08;;;30.80;63.30;;;;;;4967744;28;20038;-73
2023/07/30 13:27:03;;;;;;;2.30;0.98;;;31.80;60.70;;;;;;4985171;28;20034;-74
2023/07/30 13:29:29;;;;;;;3.58;1.13;;;31.70;61.10;;;;;;4984364;28;20066;-73
2023/07/30 13:31:54;;;;;;;3.33;1.00;;;32.30;60.70;;;;;;4985541;28;20093;-73
2023/07/30 13:34:20;;;;;;;3.35;0.90;;;33.20;60.40;;;;;;4985090;28;20034;-74
2023/07/30 13:36:46;;;;;;;3.10;1.00;;;33.70;58.40;;;;;;4985108;28;20027;-72
2023/07/30 13:39:12;;;;;;;2.50;0.88;;;33.20;58.40;;;;;;4985510;28;20309;-73
2023/07/30 13:41:37;;;;;;;2.40;0.85;;;33.10;58.70;;;;;;4984911;28;20205;-72
2023/07/30 13:44:03;;;;;;;3.20;1.10;;;31.80;59.80;;;;;;4968139;28;20027;-73
2023/07/30 13:46:29;;;;;;;3.33;1.20;;;31.90;59.90;;;;;;4984596;28;20277;-73
2023/07/30 13:48:55;;;;;;;1.92;0.80;;;31.70;59.40;;;;;;4984770;28;20038;-73
2023/07/30 13:51:20;;;;;;;3.17;0.90;;;30.10;62.10;;;;;;4985075;28;20031;-74
2023/07/30 13:53:46;;;;;;;3.05;1.10;;;29.00;64.00;;;;;;4984387;28;20111;-74
2023/07/30 13:56:12;;;;;;;3.08;0.90;;;29.30;63.90;;;;;;4984691;28;20054;-73
2023/07/30 13:58:39;;;;;;;2.53;0.80;;;30.20;62.10;;;;;;4984322;28;20268;-72
2023/07/30 14:01:06;;;;;;;4.50;0.88;;;29.90;62.80;;;;;;4984904;28;20030;-72
2023/07/30 14:03:32;;;;;;;1.67;0.75;;;30.00;63.60;;;;;;4984016;28;20089;-72
2023/07/30 14:05:58;;;;;;;4.32;1.02;;;29.50;62.60;;;;;;4984902;28;20034;-70
2023/07/30 14:08:23;;;;;;;1.95;0.80;;;29.00;64.00;;;;;;4984253;28;20328;-73
2023/07/30 14:10:49;;;;;;;2.90;0.90;;;29.10;64.40;;;;;;4984620;28;20034;-73
2023/07/30 14:13:15;;;;;;;4.63;1.23;;;28.80;64.30;;;;;;4984488;28;20038;-71
2023/07/30 14:15:41;;;;;;;2.50;0.90;;;28.70;66.20;;;;;;4984479;28;20346;-71
2023/07/30 14:18:06;;;;;;;2.78;1.00;;;29.70;64.20;;;;;;4984370;28;20070;-72
2023/07/30 14:20:32;;;;;;;4.57;1.02;;;31.80;60.70;;;;;;4983796;28;20031;-72
2023/07/30 14:23:01;;;;;;;3.53;0.80;;;31.10;60.20;;;;;;4984347;28;20292;-72
2023/07/30 14:25:27;;;;;;;2.15;0.82;;;31.90;61.00;;;;;;4984208;28;20030;-72
2023/07/30 14:27:52;;;;;;;2.85;1.10;;;32.70;59.30;;;;;;4984101;28;20062;-74
2023/07/30 14:30:18;;;;;;;2.83;1.02;;;33.10;58.00;;;;;;4984573;28;20095;-71
2023/07/30 14:32:44;;;;;;;3.30;0.93;;;33.30;58.40;;;;;;4984135;28;20285;-70
2023/07/30 14:35:09;;;;;;;3.92;1.20;;;34.10;56.00;;;;;;4984537;28;20316;-72
2023/07/30 14:37:35;;;;;;;3.55;0.80;;;33.70;56.20;;;;;;4983597;28;20034;-72
2023/07/30 14:40:01;;;;;;;2.45;0.70;;;32.90;56.60;;;;;;4984320;28;20034;-72
2023/07/30 14:42:26;;;;;;;2.42;0.80;;;34.30;55.90;;;;;;4983788;28;20038;-72
2023/07/30 14:44:52;;;;;;;3.88;0.70;;;34.00;54.80;;;;;;4967115;28;20130;-71
2023/07/30 14:47:18;;;;;;;3.65;0.80;;;32.80;56.10;;;;;;4984014;28;20031;-71
2023/07/30 14:49:44;;;;;;;4.10;0.80;;;31.40;57.90;;;;;;4983619;28;20030;-72
2023/07/30 14:52:10;;;;;;;3.72;0.90;;;31.90;57.30;;;;;;4983752;28;20311;-73
2023/07/30 14:54:36;;;;;;;2.67;0.77;;;32.60;56.50;;;;;;4983769;28;20037;-73
2023/07/30 14:57:01;;;;;;;2.75;0.90;;;33.00;55.30;;;;;;4983825;28;20231;-73
2023/07/30 14:59:27;;;;;;;3.15;1.25;;;32.80;55.30;;;;;;4983359;28;20042;-71
2023/07/30 15:01:53;;;;;;;4.22;0.90;;;32.40;56.30;;;;;;4983911;28;20038;-72
2023/07/30 15:04:18;;;;;;;3.97;0.98;;;31.40;57.20;;;;;;4983852;28;20340;-74
2023/07/30 15:06:44;;;;;;;3.25;0.80;;;30.60;58.40;;;;;;4984120;28;20249;-72
2023/07/30 15:09:10;;;;;;;3.05;0.85;;;30.30;58.20;;;;;;4983748;28;20019;-73
2023/07/30 15:11:36;;;;;;;3.83;1.10;;;30.20;58.90;;;;;;4983496;28;20041;-72
2023/07/30 15:14:02;;;;;;;2.15;0.82;;;30.90;57.40;;;;;;4983977;28;20074;-71
2023/07/30 15:16:27;;;;;;;3.40;0.63;;;31.30;57.00;;;;;;4983168;28;20042;-72
2023/07/30 15:18:54;;;;;;;2.88;1.00;;;31.90;55.30;;;;;;4983819;28;20023;-72
2023/07/30 15:21:19;;;;;;;2.97;0.80;;;33.10;54.90;;;;;;4983669;28;20253;-71
2023/07/30 15:23:45;;;;;;;2.80;0.80;;;34.00;52.90;;;;;;4983062;28;20031;-72
2023/07/30 15:26:11;;;;;;;3.42;0.85;;;34.10;52.50;;;;;;4983345;28;20023;-73
2023/07/30 15:28:37;;;;;;;2.80;0.88;;;33.50;53.70;;;;;;4982821;28;20219;-72
2023/07/30 15:31:03;;;;;;;3.50;1.10;;;34.00;52.00;;;;;;4983846;28;20023;-72
2023/07/30 15:33:29;;;;;;;4.13;1.42;;;34.80;51.80;;;;;;4983249;28;20367;-75
2023/07/30 15:35:55;;;;;;;2.88;0.80;;;34.30;51.70;;;;;;4983473;28;20054;-74
2023/07/30 15:38:21;;;;;;;2.55;0.90;;;33.80;51.50;;;;;;4983471;28;20061;-73
2023/07/30 15:40:47;;;;;;;2.55;0.80;;;33.80;51.60;;;;;;4983465;28;20034;-72
2023/07/30 15:43:12;;;;;;;1.85;0.68;;;33.30;51.40;;;;;;4983944;28;20260;-73
2023/07/30 15:45:42;;;;;;;3.40;1.08;;;32.60;53.10;;;;;;4982909;28;20404;-71
2023/07/30 15:48:09;;;;;;;3.15;0.93;;;33.40;52.50;;;;;;4983172;28;20114;-72
2023/07/30 15:50:35;;;;;;;2.42;0.82;;;34.40;50.60;;;;;;4984208;28;20280;-72
2023/07/30 15:53:01;;;;;;;3.63;1.17;;;35.20;51.10;;;;;;4986867;28;20031;-73
2023/07/30 15:55:26;;;;;;;5.38;1.02;;;34.80;49.30;;;;;;4986882;28;20031;-71
2023/07/30 15:57:53;;;;;;;3.35;0.60;;;33.30;50.20;;;;;;4986661;28;20041;-70
2023/07/30 16:00:19;;;;;;;1.83;0.57;;;32.90;51.50;;;;;;4986888;28;20030;-71
2023/07/30 16:02:45;;;;;;;2.47;0.55;;;32.20;52.10;;;;;;4986421;28;20328;-73
2023/07/30 16:05:11;;;;;;;3.33;0.90;;;32.60;51.80;;;;;;4987143;28;20085;-70
2023/07/30 16:07:38;;;;;;;3.17;0.70;;;33.60;52.10;;;;;;4986155;28;20022;-70
2023/07/30 16:10:07;;;;;;;3.30;0.70;;;34.10;50.70;;;;;;4987128;28;20319;-72
2023/07/30 16:12:33;;;;;;;3.22;0.75;;;34.00;50.10;;;;;;4986251;28;20305;-71
2023/07/30 16:14:58;;;;;;;4.40;0.95;;;33.50;50.40;;;;;;4987087;28;20090;-72
2023/07/30 16:17:24;;;;;;;4.47;0.90;;;33.10;49.50;;;;;;4986531;28;20041;-73
2023/07/30 16:19:50;;;;;;;2.47;0.68;;;32.40;50.10;;;;;;4986067;28;20216;-71
2023/07/30 16:22:15;;;;;;;2.97;0.93;;;32.60;50.30;;;;;;4986383;28;20038;-71
2023/07/30 16:24:41;;;;;;;2.67;0.82;;;33.70;49.80;;;;;;4985866;28;20267;-70
2023/07/30 16:27:07;;;;;;;4.80;0.90;;;34.30;48.70;;;;;;4986453;28;20042;-72
2023/07/30 16:29:33;;;;;;;1.83;0.68;;;32.80;49.50;;;;;;4985533;28;20110;-72
2023/07/30 16:31:58;;;;;;;3.47;0.98;;;31.20;52.00;;;;;;4986134;28;20026;-70
2023/07/30 16:34:24;;;;;;;3.10;1.10;;;32.40;51.20;;;;;;4986772;28;20204;-72
2023/07/30 16:36:50;;;;;;;2.50;0.80;;;33.00;50.40;;;;;;4985897;28;20039;-78
2023/07/30 16:39:16;;;;;;;2.22;0.68;;;33.00;51.00;;;;;;4968867;28;20105;-73
2023/07/30 16:41:43;;;;;;;3.60;0.80;;;33.50;49.40;;;;;;4968291;28;20102;-73
2023/07/30 16:44:08;;;;;;;1.92;0.60;;;33.40;49.90;;;;;;4968898;28;20029;-73
2023/07/30 16:46:34;;;;;;;2.95;0.82;;;33.10;48.80;;;;;;4985557;28;20034;-74
2023/07/30 16:49:00;;;;;;;3.65;0.90;;;32.20;49.80;;;;;;4986014;28;20204;-73
2023/07/30 16:51:25;;;;;;;3.28;0.95;;;30.40;52.50;;;;;;4985868;28;20035;-71
2023/07/30 16:53:51;;;;;;;3.20;1.23;;;28.80;54.40;;;;;;4985496;28;20339;-72
2023/07/30 16:56:17;;;;;;;3.33;0.82;;;28.00;55.30;;;;;;4985781;28;20034;-72
2023/07/30 16:58:43;;;;;;;4.60;0.90;;;27.40;56.90;;;;;;4985868;28;20069;-73
2023/07/30 17:01:09;;;;;;;4.00;0.90;;;26.70;57.00;;;;;;4968544;28;20045;-77
2023/07/30 17:03:37;;;;;;;2.65;0.90;;;26.10;57.50;;;;;;4989902;28;20079;-73
2023/07/30 17:06:10;;;;;;;3.10;0.85;;;26.10;59.40;;;;;;4986038;28;20111;-77
2023/07/30 17:08:36;;;;;;;4.95;0.90;;;25.80;58.60;;;;;;4985574;28;20031;-75
2023/07/30 17:11:06;;;;;;;3.30;0.88;;;25.70;59.40;;;;;;4985561;28;20061;-74
2023/07/30 17:13:33;;;;;;;2.35;0.70;;;25.80;59.00;;;;;;4985761;28;20320;-74
2023/07/30 17:16:07;;;;;;;3.63;1.00;;;25.70;60.70;;;;;;4985381;28;20038;-75
2023/07/30 17:18:33;;;;;;;3.42;0.80;;;25.80;58.40;;;;;;4968054;28;20030;-74
2023/07/30 17:21:00;;;;;;;3.95;0.82;;;25.60;59.30;;;;;;4985280;28;20093;-73
2023/07/30 17:23:26;;;;;;;2.97;0.60;;;25.50;59.30;;;;;;4985013;28;20034;-71
2023/07/30 17:25:53;;;;;;;2.97;1.20;;;25.30;59.30;;;;;;4985113;28;20035;-73
2023/07/30 17:28:19;;;;;;;4.20;0.80;;;25.10;59.30;;;;;;4985196;28;20110;-72
2023/07/30 17:30:45;;;;;;;3.90;0.98;;;25.10;59.90;;;;;;4985057;28;20256;-72
2023/07/30 17:33:11;;;;;;;4.78;0.70;;;25.40;59.40;;;;;;4985720;28;20031;-74
2023/07/30 17:35:37;;;;;;;3.92;0.90;;;25.50;58.90;;;;;;4984713;28;20042;-73
2023/07/30 17:38:02;;;;;;;3.00;0.98;;;26.20;58.30;;;;;;4986179;28;20085;-72
2023/07/30 17:40:28;;;;;;;4.03;1.02;;;26.70;57.60;;;;;;4985267;28;20308;-72
2023/07/30 17:42:55;;;;;;;2.58;0.60;;;27.10;56.50;;;;;;4984782;28;20030;-74
2023/07/30 17:45:20;;;;;;;3.47;0.90;;;27.00;56.30;;;;;;4985389;28;20034;-71
2023/07/30 17:47:46;;;;;;;3.58;0.90;;;26.50;57.00;;;;;;4984783;28;20216;-74
2023/07/30 17:50:12;;;;;;;3.47;0.75;;;25.90;58.20;;;;;;4985333;28;20035;-72
2023/07/30 17:52:40;;;;;;;4.10;0.70;;;25.00;59.10;;;;;;4984316;28;20296;-73
2023/07/30 17:55:07;;;;;;;3.80;0.82;;;24.40;61.10;;;;;;4984917;28;20065;-73
2023/07/30 17:57:33;;;;;;;5.72;1.13;;;24.40;61.30;;;;;;4968148;28;20042;-72
2023/07/30 17:59:59;;;;;;;4.05;1.10;;;23.90;62.30;;;;;;4984598;28;20027;-74
2023/07/30 18:02:26;;;;;;;2.70;0.88;;;23.70;63.20;;;;;;4964756;29;20147;-73
2023/07/30 18:04:52;;;;;;;3.42;0.80;;;23.70;63.20;;;;;;4965341;29;20031;-72
2023/07/30 18:07:17;;;;;;;3.20;0.80;;;23.40;62.40;;;;;;4965376;29;20094;-72
2023/07/30 18:09:43;;;;;;;4.60;1.33;;;23.00;63.30;;;;;;4965044;29;20300;-72
2023/07/30 18:12:09;;;;;;;3.35;0.77;;;22.80;63.90;;;;;;4965546;28;20035;-72
2023/07/30 18:14:35;;;;;;;4.45;0.85;;;22.60;64.50;;;;;;4971339;28;20064;-74
2023/07/30 18:17:02;;;;;;;4.55;1.30;;;22.60;65.70;;;;;;4993775;28;20073;-73
2023/07/30 18:19:28;;;;;;;3.95;1.23;;;22.40;65.90;;;;;;4976875;28;20068;-73
2023/07/30 18:21:54;;;;;;;2.47;0.80;;;22.30;66.10;;;;;;4992635;28;20026;-73
2023/07/30 18:24:20;;;;;;;4.43;0.90;;;22.10;66.80;;;;;;4993340;28;20054;-72
2023/07/30 18:26:46;;;;;;;2.72;1.00;;;22.00;67.30;;;;;;4975148;28;20022;-74
2023/07/30 18:29:12;;;;;;;2.38;0.95;;;21.90;67.60;;;;;;4994951;28;20042;-74
2023/07/30 18:31:43;;;;;;;4.07;1.05;;;21.80;67.80;;;;;;4993978;28;20023;-72
2023/07/30 18:34:08;;;;;;;2.90;0.80;;;21.70;68.60;;;;;;4992800;28;20349;-73
2023/07/30 18:36:34;;;;;;;2.58;0.88;;;21.50;68.80;;;;;;4994811;28;20042;-74
2023/07/30 18:39:00;;;;;;;4.25;1.20;;;21.30;69.80;;;;;;4992871;28;20041;-73
2023/07/30 18:41:26;;;;;;;3.05;1.00;;;21.20;69.90;;;;;;4994463;28;20022;-71
2023/07/30 18:43:52;;;;;;;3.25;1.30;;;21.30;70.50;;;;;;4989141;28;20054;-73
2023/07/30 18:46:18;;;;;;;3.72;1.10;;;21.20;70.50;;;;;;4993982;28;20098;-72
2023/07/30 18:48:44;;;;;;;5.30;1.13;;;21.20;70.10;;;;;;4991664;28;20026;-72
2023/07/30 18:51:09;;;;;;;5.97;1.60;;;21.00;71.10;;;;;;5003520;28;20043;-71
2023/07/30 18:53:35;;;;;;;5.13;1.20;;;20.90;71.40;;;;;;4986116;28;20208;-73
2023/07/30 18:56:04;;;;;;;3.35;1.05;;;20.90;71.50;;;;;;5003037;28;20041;-74
2023/07/30 18:58:29;;;;;;;4.57;0.98;;;20.80;72.00;;;;;;5003618;28;20038;-73
2023/07/30 19:00:55;;;;;;;4.22;1.00;;;20.60;72.30;;;;;;5002811;28;20301;-74
2023/07/30 19:03:21;;;;;;;3.33;1.00;;;20.60;72.60;;;;;;4990004;28;20043;-70
2023/07/30 19:05:56;;;;;;;4.22;1.00;;;20.60;72.60;;;;;;4983780;28;20030;-72
2023/07/30 19:08:25;;;;;;;4.30;1.17;;;20.50;73.20;;;;;;4983648;28;20329;-74
2023/07/30 19:10:51;;;;;;;6.13;1.58;;;20.50;74.00;;;;;;4983270;28;20209;-74
2023/07/30 19:13:16;;;;;;;4.88;1.10;;;20.50;73.20;;;;;;4966825;28;20102;-72
2023/07/30 19:15:42;;;;;;;4.43;1.40;;;20.40;73.10;;;;;;4966167;28;20094;-73
2023/07/30 19:18:08;;;;;;;5.22;1.20;;;20.30;73.80;;;;;;4984014;28;20031;-72
2023/07/30 19:20:34;;;;;;;3.85;1.27;;;20.20;73.90;;;;;;4983918;28;20205;-73
2023/07/30 19:23:00;;;;;;;2.85;1.15;;;20.20;75.10;;;;;;4982983;28;20361;-73
2023/07/30 19:25:25;;;;;;;3.20;1.17;;;20.10;75.40;;;;;;4969356;28;20294;-73
2023/07/30 19:27:51;;;;;;;3.70;1.40;;;20.10;75.30;;;;;;4986991;28;20073;-73
2023/07/30 19:30:17;;;;;;;3.95;1.15;;;20.00;76.10;;;;;;4988098;28;20038;-72
2023/07/30 19:32:43;;;;;;;4.95;1.38;;;20.00;75.10;;;;;;4970120;28;20034;-73
2023/07/30 19:35:10;;;;;;;5.05;1.42;;;20.00;75.20;;;;;;4987818;28;20368;-76
2023/07/30 19:37:36;;;;;;;4.05;1.20;;;19.90;76.10;;;;;;4987281;28;20202;-73
2023/07/30 19:40:03;;;;;;;5.53;1.60;;;19.90;75.90;;;;;;4969822;28;20039;-71
2023/07/30 19:42:29;;;;;;;6.68;1.80;;;19.80;77.00;;;;;;4987332;28;20041;-72
2023/07/30 19:44:54;;;;;;;5.63;2.08;;;19.80;76.10;;;;;;4987164;28;20023;-72
2023/07/30 19:47:22;;;;;;;5.70;1.60;;;19.80;77.10;;;;;;4987444;28;20327;-71
2023/07/30 19:49:48;;;;;;;7.10;2.60;;;19.80;77.00;;;;;;4986922;28;20340;-73
2023/07/30 19:52:15;;;;;;;6.22;2.08;;;19.70;78.30;;;;;;4987360;28;20085;-74
2023/07/30 19:54:40;;;;;;;3.90;1.60;;;19.70;78.40;;;;;;4986917;28;20038;-73
2023/07/30 19:57:06;;;;;;;4.63;1.40;;;19.60;78.20;;;;;;4986826;28;20019;-72
2023/07/30 19:59:32;;;;;;;4.40;1.48;;;19.60;78.20;;;;;;4969679;28;20050;-72
2023/07/30 20:01:58;;;;;;;4.07;1.10;;;19.60;79.50;;;;;;4969294;28;20363;-72
2023/07/30 20:04:24;;;;;;;5.22;2.05;;;19.50;78.20;;;;;;4969899;28;20034;-74
2023/07/30 20:06:52;;;;;;;4.50;1.67;;;19.40;79.90;;;;;;4986503;28;20134;-73
2023/07/30 20:09:18;;;;;;;3.10;1.40;;;19.30;79.70;;;;;;4969924;28;20094;-70
2023/07/30 20:11:44;;;;;;;3.35;0.95;;;19.30;80.20;;;;;;4987316;28;20213;-75
2023/07/30 20:14:10;;;;;;;3.63;1.20;;;19.20;80.60;;;;;;4986719;28;20216;-73
2023/07/30 20:16:36;;;;;;;4.70;1.50;;;19.10;79.90;;;;;;4987213;28;20359;-73
2023/07/30 20:19:03;;;;;;;5.07;1.50;;;19.10;80.40;;;;;;4984865;28;20069;-74
2023/07/30 20:21:28;;;;;;;3.67;1.75;;;19.00;80.10;;;;;;4986604;28;20335;-74
2023/07/30 20:23:54;;;;;;;5.90;1.88;;;19.00;80.00;;;;;;4985867;28;20034;-74
2023/07/30 20:26:20;;;;;;;4.82;1.60;;;19.00;80.00;;;;;;4986564;28;20034;-74
2023/07/30 20:28:51;;;;;;;4.57;1.27;;;19.00;79.90;;;;;;4985819;28;20042;-73
2023/07/30 20:31:18;;;;;;;5.63;1.40;;;18.90;80.50;;;;;;4986267;28;20092;-72
2023/07/30 20:33:44;;;;;;;4.35;1.00;;;18.90;81.00;;;;;;4986381;28;20363;-73
2023/07/30 20:36:10;;;;;;;3.95;1.33;;;18.90;80.10;;;;;;4985031;28;20205;-74
2023/07/30 20:38:36;;;;;;;4.18;1.17;;;18.90;81.00;;;;;;4969210;28;20090;-71
2023/07/30 20:41:02;;;;;;;4.05;1.42;;;18.90;80.80;;;;;;4986083;28;20041;-73
2023/07/30 20:43:28;;;;;;;4.18;1.20;;;18.80;81.60;;;;;;4986239;28;20313;-73